Terminal Aerodrome Forecast
Issued by NWS

Home | Current Version | Previous Version | Text Only | Print | Product List | Glossary On
Versions: 1 2 3 4 5 6 7 8 9 10 11 12 13 14 15 16 17 18 19 20 21 22
000
FTUS41 KOKX 222322
TAFHPN
TAF
KHPN 222322Z 2300/2324 15004KT P6SM BKN250
     FM230300 VRB02KT 6SM BR FEW008 FEW040 BKN250
     FM230600 VRB02KT 3SM BR SCT008 SCT040 BKN250
     FM231400 15004KT P6SM SCT008 BKN035
     FM231900 15008KT P6SM SCT008 BKN030
      AMD NOT SKED=

USA.gov is the U.S. government's official web portal to all federal, state and local government web resources and services.